sensor_id;sensor_type;location;lat;lon;timestamp;P1;durP1;ratioP1;P2;durP2;ratioP2
55815;SDS011;41744;52.404;16.942;2022-10-04T00:02:20;15.13;;;2.03;;
55815;SDS011;41744;52.404;16.942;2022-10-04T00:04:56;14.40;;;2.20;;
55815;SDS011;41744;52.404;16.942;2022-10-04T00:07:28;12.43;;;1.60;;
55815;SDS011;41744;52.404;16.942;2022-10-04T00:14:50;6.77;;;1.43;;
55815;SDS011;41744;52.404;16.942;2022-10-04T00:17:25;8.87;;;1.90;;
55815;SDS011;41744;52.404;16.942;2022-10-04T00:19:52;6.40;;;1.60;;
55815;SDS011;41744;52.404;16.942;2022-10-04T00:22:31;6.78;;;1.60;;
55815;SDS011;41744;52.404;16.942;2022-10-04T00:27:34;10.20;;;1.90;;
55815;SDS011;41744;52.404;16.942;2022-10-04T00:34:52;6.67;;;1.37;;
55815;SDS011;41744;52.404;16.942;2022-10-04T00:37:20;6.87;;;1.40;;
55815;SDS011;41744;52.404;16.942;2022-10-04T00:39:54;11.85;;;1.30;;
55815;SDS011;41744;52.404;16.942;2022-10-04T00:45:17;11.10;;;1.80;;
55815;SDS011;41744;52.404;16.942;2022-10-04T00:50:20;7.77;;;1.27;;
55815;SDS011;41744;52.404;16.942;2022-10-04T00:52:53;9.18;;;1.27;;
55815;SDS011;41744;52.404;16.942;2022-10-04T00:55:43;7.33;;;1.27;;
55815;SDS011;41744;52.404;16.942;2022-10-04T00:58:08;10.87;;;1.30;;
55815;SDS011;41744;52.404;16.942;2022-10-04T01:00:39;9.80;;;1.50;;
55815;SDS011;41744;52.404;16.942;2022-10-04T01:03:09;9.50;;;1.87;;
55815;SDS011;41744;52.404;16.942;2022-10-04T01:05:38;8.67;;;1.73;;
55815;SDS011;41744;52.404;16.942;2022-10-04T01:10:32;10.50;;;1.65;;
55815;SDS011;41744;52.404;16.942;2022-10-04T01:13:20;11.83;;;1.70;;
55815;SDS011;41744;52.404;16.942;2022-10-04T01:15:49;10.82;;;1.30;;
55815;SDS011;41744;52.404;16.942;2022-10-04T01:23:35;10.17;;;1.70;;
55815;SDS011;41744;52.404;16.942;2022-10-04T01:25:59;7.33;;;1.30;;
55815;SDS011;41744;52.404;16.942;2022-10-04T01:28:25;8.07;;;1.50;;
55815;SDS011;41744;52.404;16.942;2022-10-04T01:30:52;10.77;;;1.50;;
55815;SDS011;41744;52.404;16.942;2022-10-04T01:33:18;12.73;;;1.60;;
55815;SDS011;41744;52.404;16.942;2022-10-04T01:35:44;11.83;;;1.40;;
55815;SDS011;41744;52.404;16.942;2022-10-04T01:38:10;10.27;;;1.90;;
55815;SDS011;41744;52.404;16.942;2022-10-04T01:40:38;8.80;;;1.60;;
55815;SDS011;41744;52.404;16.942;2022-10-04T01:43:08;13.70;;;1.77;;
55815;SDS011;41744;52.404;16.942;2022-10-04T01:45:39;13.57;;;2.17;;
55815;SDS011;41744;52.404;16.942;2022-10-04T01:48:10;6.23;;;1.30;;
55815;SDS011;41744;52.404;16.942;2022-10-04T01:50:45;7.07;;;1.33;;
55815;SDS011;41744;52.404;16.942;2022-10-04T01:53:14;7.23;;;1.40;;
55815;SDS011;41744;52.404;16.942;2022-10-04T01:55:43;12.13;;;1.50;;
55815;SDS011;41744;52.404;16.942;2022-10-04T01:58:18;9.30;;;1.60;;
55815;SDS011;41744;52.404;16.942;2022-10-04T02:00:47;11.27;;;1.80;;
55815;SDS011;41744;52.404;16.942;2022-10-04T02:03:23;7.70;;;1.30;;
55815;SDS011;41744;52.404;16.942;2022-10-04T02:05:53;11.77;;;1.63;;
55815;SDS011;41744;52.404;16.942;2022-10-04T02:08:22;11.17;;;1.43;;
55815;SDS011;41744;52.404;16.942;2022-10-04T02:10:50;8.32;;;1.52;;
55815;SDS011;41744;52.404;16.942;2022-10-04T02:13:17;11.27;;;1.38;;
55815;SDS011;41744;52.404;16.942;2022-10-04T02:15:44;11.80;;;1.63;;
55815;SDS011;41744;52.404;16.942;2022-10-04T02:18:12;7.77;;;1.60;;
55815;SDS011;41744;52.404;16.942;2022-10-04T02:20:39;6.50;;;1.40;;
55815;SDS011;41744;52.404;16.942;2022-10-04T02:23:05;9.90;;;1.77;;
55815;SDS011;41744;52.404;16.942;2022-10-04T02:25:32;14.47;;;1.87;;
55815;SDS011;41744;52.404;16.942;2022-10-04T02:28:00;7.53;;;1.63;;
55815;SDS011;41744;52.404;16.942;2022-10-04T02:30:26;12.63;;;1.33;;
55815;SDS011;41744;52.404;16.942;2022-10-04T02:32:53;9.77;;;1.70;;
55815;SDS011;41744;52.404;16.942;2022-10-04T02:35:29;13.93;;;1.40;;
55815;SDS011;41744;52.404;16.942;2022-10-04T02:38:04;10.90;;;1.57;;
55815;SDS011;41744;52.404;16.942;2022-10-04T02:40:35;9.00;;;1.50;;
55815;SDS011;41744;52.404;16.942;2022-10-04T02:43:25;8.00;;;1.47;;
55815;SDS011;41744;52.404;16.942;2022-10-04T02:48:36;10.97;;;1.53;;
55815;SDS011;41744;52.404;16.942;2022-10-04T02:51:11;7.83;;;1.20;;
55815;SDS011;41744;52.404;16.942;2022-10-04T02:54:02;9.10;;;1.50;;
55815;SDS011;41744;52.404;16.942;2022-10-04T02:56:25;10.47;;;1.43;;
55815;SDS011;41744;52.404;16.942;2022-10-04T02:58:51;10.63;;;1.50;;
55815;SDS011;41744;52.404;16.942;2022-10-04T03:01:35;8.13;;;1.40;;
55815;SDS011;41744;52.404;16.942;2022-10-04T03:04:02;12.57;;;1.57;;
55815;SDS011;41744;52.404;16.942;2022-10-04T03:06:29;10.10;;;1.40;;
55815;SDS011;41744;52.404;16.942;2022-10-04T03:08:57;6.47;;;1.30;;
55815;SDS011;41744;52.404;16.942;2022-10-04T03:11:26;14.97;;;1.70;;
55815;SDS011;41744;52.404;16.942;2022-10-04T03:13:55;9.67;;;1.93;;
55815;SDS011;41744;52.404;16.942;2022-10-04T03:16:22;9.27;;;1.53;;
55815;SDS011;41744;52.404;16.942;2022-10-04T03:18:49;14.33;;;1.70;;
55815;SDS011;41744;52.404;16.942;2022-10-04T03:21:16;8.33;;;1.50;;
55815;SDS011;41744;52.404;16.942;2022-10-04T03:23:43;6.63;;;1.50;;
55815;SDS011;41744;52.404;16.942;2022-10-04T03:28:39;7.67;;;1.40;;
55815;SDS011;41744;52.404;16.942;2022-10-04T03:31:05;9.43;;;1.60;;
55815;SDS011;41744;52.404;16.942;2022-10-04T03:33:31;10.77;;;1.80;;
55815;SDS011;41744;52.404;16.942;2022-10-04T03:35:58;10.40;;;1.90;;
55815;SDS011;41744;52.404;16.942;2022-10-04T03:38:25;8.27;;;1.30;;
55815;SDS011;41744;52.404;16.942;2022-10-04T03:40:55;9.53;;;1.77;;
55815;SDS011;41744;52.404;16.942;2022-10-04T03:43:23;10.03;;;1.70;;
55815;SDS011;41744;52.404;16.942;2022-10-04T03:45:50;9.43;;;1.53;;
55815;SDS011;41744;52.404;16.942;2022-10-04T03:48:22;9.53;;;1.57;;
55815;SDS011;41744;52.404;16.942;2022-10-04T03:50:50;11.83;;;1.73;;
55815;SDS011;41744;52.404;16.942;2022-10-04T03:53:27;10.90;;;1.73;;
55815;SDS011;41744;52.404;16.942;2022-10-04T03:55:54;8.07;;;1.47;;
55815;SDS011;41744;52.404;16.942;2022-10-04T03:58:21;10.10;;;1.90;;
55815;SDS011;41744;52.404;16.942;2022-10-04T04:00:55;12.37;;;2.03;;
55815;SDS011;41744;52.404;16.942;2022-10-04T04:03:24;15.73;;;2.03;;
55815;SDS011;41744;52.404;16.942;2022-10-04T04:05:53;7.60;;;1.43;;
55815;SDS011;41744;52.404;16.942;2022-10-04T04:08:27;8.43;;;1.73;;
55815;SDS011;41744;52.404;16.942;2022-10-04T04:10:54;8.63;;;1.60;;
55815;SDS011;41744;52.404;16.942;2022-10-04T04:16:02;12.30;;;2.20;;
55815;SDS011;41744;52.404;16.942;2022-10-04T04:18:32;8.93;;;1.90;;
55815;SDS011;41744;52.404;16.942;2022-10-04T04:20:59;16.57;;;2.40;;
55815;SDS011;41744;52.404;16.942;2022-10-04T04:23:42;12.17;;;2.43;;
55815;SDS011;41744;52.404;16.942;2022-10-04T04:26:13;15.33;;;2.50;;
55815;SDS011;41744;52.404;16.942;2022-10-04T04:28:44;12.53;;;2.63;;
55815;SDS011;41744;52.404;16.942;2022-10-04T04:31:27;13.50;;;2.47;;
55815;SDS011;41744;52.404;16.942;2022-10-04T04:36:24;11.97;;;2.63;;
55815;SDS011;41744;52.404;16.942;2022-10-04T04:38:50;16.13;;;2.90;;
55815;SDS011;41744;52.404;16.942;2022-10-04T04:41:35;11.53;;;3.30;;
55815;SDS011;41744;52.404;16.942;2022-10-04T04:44:01;7.50;;;2.63;;
55815;SDS011;41744;52.404;16.942;2022-10-04T04:46:28;12.20;;;2.80;;
55815;SDS011;41744;52.404;16.942;2022-10-04T04:49:13;12.50;;;2.97;;
55815;SDS011;41744;52.404;16.942;2022-10-04T04:51:40;12.43;;;2.93;;
55815;SDS011;41744;52.404;16.942;2022-10-04T04:54:10;11.07;;;3.03;;
55815;SDS011;41744;52.404;16.942;2022-10-04T04:56:36;11.67;;;3.00;;
55815;SDS011;41744;52.404;16.942;2022-10-04T04:59:03;9.13;;;3.03;;
55815;SDS011;41744;52.404;16.942;2022-10-04T05:01:35;15.10;;;3.33;;
55815;SDS011;41744;52.404;16.942;2022-10-04T05:07:01;19.40;;;3.70;;
55815;SDS011;41744;52.404;16.942;2022-10-04T05:09:29;10.60;;;3.60;;
55815;SDS011;41744;52.404;16.942;2022-10-04T05:11:58;7.70;;;3.20;;
55815;SDS011;41744;52.404;16.942;2022-10-04T05:14:26;11.90;;;3.67;;
55815;SDS011;41744;52.404;16.942;2022-10-04T05:16:55;12.83;;;3.80;;
55815;SDS011;41744;52.404;16.942;2022-10-04T05:19:26;14.83;;;3.87;;
55815;SDS011;41744;52.404;16.942;2022-10-04T05:21:55;8.87;;;3.60;;
55815;SDS011;41744;52.404;16.942;2022-10-04T05:24:29;11.77;;;3.33;;
55815;SDS011;41744;52.404;16.942;2022-10-04T05:26:56;11.03;;;3.67;;
55815;SDS011;41744;52.404;16.942;2022-10-04T05:29:25;17.87;;;6.13;;
55815;SDS011;41744;52.404;16.942;2022-10-04T05:31:56;24.50;;;8.47;;
55815;SDS011;41744;52.404;16.942;2022-10-04T05:34:28;18.83;;;4.60;;
55815;SDS011;41744;52.404;16.942;2022-10-04T05:37:05;13.80;;;3.80;;
55815;SDS011;41744;52.404;16.942;2022-10-04T05:39:43;17.53;;;4.13;;
55815;SDS011;41744;52.404;16.942;2022-10-04T05:42:23;12.10;;;4.10;;
55815;SDS011;41744;52.404;16.942;2022-10-04T05:44:51;11.43;;;3.77;;
55815;SDS011;41744;52.404;16.942;2022-10-04T05:47:18;15.77;;;4.03;;
55815;SDS011;41744;52.404;16.942;2022-10-04T05:49:48;11.33;;;3.60;;
55815;SDS011;41744;52.404;16.942;2022-10-04T05:52:15;13.43;;;3.50;;
55815;SDS011;41744;52.404;16.942;2022-10-04T05:55:09;17.27;;;3.10;;
55815;SDS011;41744;52.404;16.942;2022-10-04T06:08:00;11.30;;;3.40;;
55815;SDS011;41744;52.404;16.942;2022-10-04T06:20:42;11.67;;;3.40;;
55815;SDS011;41744;52.404;16.942;2022-10-04T06:23:16;15.70;;;3.13;;
55815;SDS011;41744;52.404;16.942;2022-10-04T06:28:15;22.25;;;3.40;;
55815;SDS011;41744;52.404;16.942;2022-10-04T06:43:59;11.73;;;2.90;;
55815;SDS011;41744;52.404;16.942;2022-10-04T06:46:51;12.00;;;3.47;;
55815;SDS011;41744;52.404;16.942;2022-10-04T06:49:35;15.52;;;3.10;;
55815;SDS011;41744;52.404;16.942;2022-10-04T07:02:30;11.45;;;2.75;;
55815;SDS011;41744;52.404;16.942;2022-10-04T07:07:38;11.65;;;2.65;;
55815;SDS011;41744;52.404;16.942;2022-10-04T07:15:30;8.25;;;3.05;;
55815;SDS011;41744;52.404;16.942;2022-10-04T07:18:01;18.23;;;3.40;;
55815;SDS011;41744;52.404;16.942;2022-10-04T07:20:30;18.05;;;3.10;;
55815;SDS011;41744;52.404;16.942;2022-10-04T07:23:02;9.90;;;2.40;;
55815;SDS011;41744;52.404;16.942;2022-10-04T07:25:31;8.10;;;2.65;;
55815;SDS011;41744;52.404;16.942;2022-10-04T07:33:20;10.88;;;2.90;;
55815;SDS011;41744;52.404;16.942;2022-10-04T07:35:51;8.75;;;2.67;;
55815;SDS011;41744;52.404;16.942;2022-10-04T07:38:22;7.90;;;2.58;;
55815;SDS011;41744;52.404;16.942;2022-10-04T07:43:37;15.82;;;2.83;;
55815;SDS011;41744;52.404;16.942;2022-10-04T07:46:13;9.25;;;2.60;;
55815;SDS011;41744;52.404;16.942;2022-10-04T07:48:42;11.23;;;2.88;;
55815;SDS011;41744;52.404;16.942;2022-10-04T07:51:18;17.85;;;2.83;;
55815;SDS011;41744;52.404;16.942;2022-10-04T07:56:38;8.77;;;2.10;;
55815;SDS011;41744;52.404;16.942;2022-10-04T07:59:24;8.93;;;2.30;;
55815;SDS011;41744;52.404;16.942;2022-10-04T08:07:21;7.53;;;2.42;;
55815;SDS011;41744;52.404;16.942;2022-10-04T08:09:56;9.52;;;2.30;;
55815;SDS011;41744;52.404;16.942;2022-10-04T08:14:54;12.98;;;2.65;;
55815;SDS011;41744;52.404;16.942;2022-10-04T08:19:57;12.82;;;2.13;;
55815;SDS011;41744;52.404;16.942;2022-10-04T08:25:02;7.47;;;2.63;;
55815;SDS011;41744;52.404;16.942;2022-10-04T08:27:35;15.75;;;3.15;;
55815;SDS011;41744;52.404;16.942;2022-10-04T08:30:11;8.48;;;2.55;;
55815;SDS011;41744;52.404;16.942;2022-10-04T08:32:41;11.93;;;2.55;;
55815;SDS011;41744;52.404;16.942;2022-10-04T08:35:28;10.00;;;2.30;;
55815;SDS011;41744;52.404;16.942;2022-10-04T08:48:52;9.52;;;2.08;;
55815;SDS011;41744;52.404;16.942;2022-10-04T08:54:10;8.85;;;1.90;;
55815;SDS011;41744;52.404;16.942;2022-10-04T08:56:44;10.07;;;2.00;;
55815;SDS011;41744;52.404;16.942;2022-10-04T09:02:05;6.38;;;2.15;;
55815;SDS011;41744;52.404;16.942;2022-10-04T09:38:52;5.40;;;1.80;;
55815;SDS011;41744;52.404;16.942;2022-10-04T09:41:37;7.40;;;1.80;;
55815;SDS011;41744;52.404;16.942;2022-10-04T10:07:04;10.18;;;2.45;;
55815;SDS011;41744;52.404;16.942;2022-10-04T10:12:52;14.73;;;2.67;;
55815;SDS011;41744;52.404;16.942;2022-10-04T10:15:55;6.95;;;2.10;;
55815;SDS011;41744;52.404;16.942;2022-10-04T10:26:39;7.15;;;1.85;;
55815;SDS011;41744;52.404;16.942;2022-10-04T10:29:21;12.60;;;2.10;;
55815;SDS011;41744;52.404;16.942;2022-10-04T10:31:57;7.82;;;1.77;;
55815;SDS011;41744;52.404;16.942;2022-10-04T10:45:17;6.30;;;1.88;;
55815;SDS011;41744;52.404;16.942;2022-10-04T10:47:52;7.68;;;1.70;;
55815;SDS011;41744;52.404;16.942;2022-10-04T10:50:32;3.80;;;1.50;;
55815;SDS011;41744;52.404;16.942;2022-10-04T11:09:20;13.20;;;1.75;;
55815;SDS011;41744;52.404;16.942;2022-10-04T11:12:02;7.35;;;1.52;;
55815;SDS011;41744;52.404;16.942;2022-10-04T11:14:52;7.50;;;1.70;;
55815;SDS011;41744;52.404;16.942;2022-10-04T11:23:06;7.85;;;1.90;;
55815;SDS011;41744;52.404;16.942;2022-10-04T11:25:39;6.68;;;1.65;;
55815;SDS011;41744;52.404;16.942;2022-10-04T11:28:24;3.58;;;1.33;;
55815;SDS011;41744;52.404;16.942;2022-10-04T11:38:41;8.00;;;1.38;;
55815;SDS011;41744;52.404;16.942;2022-10-04T11:41:13;9.93;;;1.67;;
55815;SDS011;41744;52.404;16.942;2022-10-04T11:46:12;4.28;;;1.40;;
55815;SDS011;41744;52.404;16.942;2022-10-04T11:48:53;5.68;;;2.03;;
55815;SDS011;41744;52.404;16.942;2022-10-04T11:51:43;4.15;;;1.50;;
55815;SDS011;41744;52.404;16.942;2022-10-04T11:59:44;4.80;;;1.45;;
55815;SDS011;41744;52.404;16.942;2022-10-04T12:12:57;2.45;;;1.30;;
55815;SDS011;41744;52.404;16.942;2022-10-04T12:33:33;7.13;;;1.35;;
55815;SDS011;41744;52.404;16.942;2022-10-04T12:54:05;5.80;;;1.23;;
55815;SDS011;41744;52.404;16.942;2022-10-04T12:56:42;3.15;;;1.17;;
55815;SDS011;41744;52.404;16.942;2022-10-04T13:09:16;16.42;;;1.40;;
55815;SDS011;41744;52.404;16.942;2022-10-04T13:19:37;4.38;;;1.10;;
55815;SDS011;41744;52.404;16.942;2022-10-04T13:22:17;7.03;;;1.40;;
55815;SDS011;41744;52.404;16.942;2022-10-04T13:44:45;4.88;;;1.73;;
55815;SDS011;41744;52.404;16.942;2022-10-04T13:52:27;6.75;;;1.65;;
55815;SDS011;41744;52.404;16.942;2022-10-04T13:55:26;8.77;;;1.60;;
55815;SDS011;41744;52.404;16.942;2022-10-04T14:21:28;5.55;;;1.23;;
55815;SDS011;41744;52.404;16.942;2022-10-04T14:24:19;4.57;;;1.60;;
55815;SDS011;41744;52.404;16.942;2022-10-04T14:37:02;3.00;;;1.13;;
55815;SDS011;41744;52.404;16.942;2022-10-04T14:44:39;8.07;;;2.80;;
55815;SDS011;41744;52.404;16.942;2022-10-04T14:47:15;7.32;;;1.42;;
55815;SDS011;41744;52.404;16.942;2022-10-04T14:49:57;4.53;;;1.35;;
55815;SDS011;41744;52.404;16.942;2022-10-04T14:52:33;3.47;;;1.00;;
55815;SDS011;41744;52.404;16.942;2022-10-04T14:55:13;3.67;;;0.90;;
55815;SDS011;41744;52.404;16.942;2022-10-04T15:00:19;4.97;;;0.90;;
55815;SDS011;41744;52.404;16.942;2022-10-04T15:10:37;6.70;;;1.20;;
55815;SDS011;41744;52.404;16.942;2022-10-04T15:15:52;3.65;;;1.30;;
55815;SDS011;41744;52.404;16.942;2022-10-04T15:18:35;2.88;;;1.10;;
55815;SDS011;41744;52.404;16.942;2022-10-04T15:21:09;7.10;;;1.00;;
55815;SDS011;41744;52.404;16.942;2022-10-04T15:23:46;3.38;;;1.33;;
55815;SDS011;41744;52.404;16.942;2022-10-04T15:31:19;3.28;;;0.80;;
55815;SDS011;41744;52.404;16.942;2022-10-04T15:47:48;3.10;;;0.80;;
55815;SDS011;41744;52.404;16.942;2022-10-04T15:50:23;3.67;;;0.90;;
55815;SDS011;41744;52.404;16.942;2022-10-04T15:58:12;6.07;;;1.25;;
55815;SDS011;41744;52.404;16.942;2022-10-04T16:05:48;7.45;;;1.70;;
55815;SDS011;41744;52.404;16.942;2022-10-04T16:18:44;9.82;;;1.90;;
55815;SDS011;41744;52.404;16.942;2022-10-04T16:21:30;7.75;;;2.00;;
55815;SDS011;41744;52.404;16.942;2022-10-04T16:29:26;11.27;;;2.90;;
55815;SDS011;41744;52.404;16.942;2022-10-04T16:39:36;11.77;;;2.58;;
55815;SDS011;41744;52.404;16.942;2022-10-04T16:47:33;7.03;;;2.50;;
55815;SDS011;41744;52.404;16.942;2022-10-04T16:50:02;10.40;;;3.15;;
55815;SDS011;41744;52.404;16.942;2022-10-04T16:54:59;13.77;;;3.67;;
55815;SDS011;41744;52.404;16.942;2022-10-04T16:57:27;11.52;;;3.80;;
55815;SDS011;41744;52.404;16.942;2022-10-04T16:59:54;8.90;;;2.50;;
55815;SDS011;41744;52.404;16.942;2022-10-04T17:07:36;8.05;;;3.15;;
55815;SDS011;41744;52.404;16.942;2022-10-04T17:10:18;11.02;;;3.53;;
55815;SDS011;41744;52.404;16.942;2022-10-04T17:12:47;13.82;;;3.45;;
55815;SDS011;41744;52.404;16.942;2022-10-04T17:15:23;13.68;;;3.25;;
55815;SDS011;41744;52.404;16.942;2022-10-04T17:30:53;17.55;;;5.18;;
55815;SDS011;41744;52.404;16.942;2022-10-04T17:41:16;24.80;;;6.70;;
55815;SDS011;41744;52.404;16.942;2022-10-04T17:44:02;17.48;;;6.72;;
55815;SDS011;41744;52.404;16.942;2022-10-04T17:49:01;14.05;;;6.10;;
55815;SDS011;41744;52.404;16.942;2022-10-04T17:51:48;12.73;;;5.97;;
55815;SDS011;41744;52.404;16.942;2022-10-04T17:57:26;15.18;;;6.28;;
55815;SDS011;41744;52.404;16.942;2022-10-04T18:00:08;16.58;;;6.65;;
55815;SDS011;41744;52.404;16.942;2022-10-04T18:05:20;19.80;;;7.20;;
55815;SDS011;41744;52.404;16.942;2022-10-04T18:10:47;18.67;;;7.47;;
55815;SDS011;41744;52.404;16.942;2022-10-04T18:13:22;19.00;;;8.40;;
55815;SDS011;41744;52.404;16.942;2022-10-04T18:16:02;20.15;;;8.43;;
55815;SDS011;41744;52.404;16.942;2022-10-04T18:18:41;21.45;;;8.00;;
55815;SDS011;41744;52.404;16.942;2022-10-04T18:23:42;18.52;;;8.30;;
55815;SDS011;41744;52.404;16.942;2022-10-04T18:26:17;22.67;;;8.32;;
55815;SDS011;41744;52.404;16.942;2022-10-04T18:28:44;28.80;;;9.57;;
55815;SDS011;41744;52.404;16.942;2022-10-04T18:34:31;28.50;;;9.82;;
55815;SDS011;41744;52.404;16.942;2022-10-04T18:37:04;29.20;;;9.15;;
55815;SDS011;41744;52.404;16.942;2022-10-04T18:39:31;26.67;;;9.52;;
55815;SDS011;41744;52.404;16.942;2022-10-04T18:42:06;23.67;;;9.30;;
55815;SDS011;41744;52.404;16.942;2022-10-04T18:49:53;29.25;;;10.88;;
55815;SDS011;41744;52.404;16.942;2022-10-04T18:52:32;26.95;;;10.55;;
55815;SDS011;41744;52.404;16.942;2022-10-04T18:55:03;26.27;;;11.65;;
55815;SDS011;41744;52.404;16.942;2022-10-04T19:00:18;29.30;;;11.20;;
55815;SDS011;41744;52.404;16.942;2022-10-04T19:05:59;30.65;;;10.35;;
55815;SDS011;41744;52.404;16.942;2022-10-04T19:09:00;24.45;;;9.82;;
55815;SDS011;41744;52.404;16.942;2022-10-04T19:11:42;45.92;;;19.70;;
55815;SDS011;41744;52.404;16.942;2022-10-04T19:16:52;28.70;;;12.82;;
55815;SDS011;41744;52.404;16.942;2022-10-04T19:22:06;27.20;;;10.20;;
55815;SDS011;41744;52.404;16.942;2022-10-04T19:35:25;27.88;;;10.35;;
55815;SDS011;41744;52.404;16.942;2022-10-04T19:37:59;29.15;;;10.45;;
55815;SDS011;41744;52.404;16.942;2022-10-04T19:43:07;29.58;;;10.25;;
55815;SDS011;41744;52.404;16.942;2022-10-04T19:45:41;33.40;;;11.10;;
55815;SDS011;41744;52.404;16.942;2022-10-04T19:48:13;28.88;;;11.10;;
55815;SDS011;41744;52.404;16.942;2022-10-04T19:50:43;27.52;;;10.75;;
55815;SDS011;41744;52.404;16.942;2022-10-04T19:53:20;32.95;;;11.73;;
55815;SDS011;41744;52.404;16.942;2022-10-04T19:55:50;24.67;;;11.38;;
55815;SDS011;41744;52.404;16.942;2022-10-04T20:00:56;32.17;;;12.18;;
55815;SDS011;41744;52.404;16.942;2022-10-04T20:03:22;30.55;;;12.68;;
55815;SDS011;41744;52.404;16.942;2022-10-04T20:05:49;33.10;;;12.95;;
55815;SDS011;41744;52.404;16.942;2022-10-04T20:11:11;44.50;;;17.13;;
55815;SDS011;41744;52.404;16.942;2022-10-04T20:13:38;36.30;;;13.90;;
55815;SDS011;41744;52.404;16.942;2022-10-04T20:16:04;39.47;;;14.93;;
55815;SDS011;41744;52.404;16.942;2022-10-04T20:26:04;37.57;;;15.03;;
55815;SDS011;41744;52.404;16.942;2022-10-04T20:31:04;37.53;;;15.57;;
55815;SDS011;41744;52.404;16.942;2022-10-04T20:44:01;36.42;;;14.05;;
55815;SDS011;41744;52.404;16.942;2022-10-04T20:46:36;35.83;;;14.05;;
55815;SDS011;41744;52.404;16.942;2022-10-04T20:49:03;42.47;;;15.38;;
55815;SDS011;41744;52.404;16.942;2022-10-04T20:51:30;38.20;;;15.00;;
55815;SDS011;41744;52.404;16.942;2022-10-04T20:53:57;36.28;;;14.15;;
55815;SDS011;41744;52.404;16.942;2022-10-04T20:58:54;38.27;;;14.80;;
55815;SDS011;41744;52.404;16.942;2022-10-04T21:01:21;33.92;;;13.88;;
55815;SDS011;41744;52.404;16.942;2022-10-04T21:06:53;42.30;;;14.47;;
55815;SDS011;41744;52.404;16.942;2022-10-04T21:09:20;35.67;;;13.87;;
55815;SDS011;41744;52.404;16.942;2022-10-04T21:11:47;39.07;;;14.13;;
55815;SDS011;41744;52.404;16.942;2022-10-04T21:14:24;34.83;;;13.93;;
55815;SDS011;41744;52.404;16.942;2022-10-04T21:16:51;38.47;;;15.13;;
55815;SDS011;41744;52.404;16.942;2022-10-04T21:19:27;33.93;;;14.23;;
55815;SDS011;41744;52.404;16.942;2022-10-04T21:21:54;34.38;;;14.90;;
55815;SDS011;41744;52.404;16.942;2022-10-04T21:24:36;43.27;;;15.97;;
55815;SDS011;41744;52.404;16.942;2022-10-04T21:27:03;35.83;;;14.60;;
55815;SDS011;41744;52.404;16.942;2022-10-04T21:29:30;33.45;;;14.90;;
55815;SDS011;41744;52.404;16.942;2022-10-04T21:31:59;34.83;;;15.55;;
55815;SDS011;41744;52.404;16.942;2022-10-04T21:34:25;33.90;;;14.48;;
55815;SDS011;41744;52.404;16.942;2022-10-04T21:36:54;34.87;;;15.00;;
55815;SDS011;41744;52.404;16.942;2022-10-04T21:39:20;31.52;;;13.98;;
55815;SDS011;41744;52.404;16.942;2022-10-04T21:41:47;41.47;;;15.00;;
55815;SDS011;41744;52.404;16.942;2022-10-04T21:44:13;39.50;;;16.35;;
55815;SDS011;41744;52.404;16.942;2022-10-04T21:46:39;38.90;;;15.80;;
55815;SDS011;41744;52.404;16.942;2022-10-04T21:49:08;37.30;;;16.50;;
55815;SDS011;41744;52.404;16.942;2022-10-04T21:51:34;39.23;;;16.60;;
55815;SDS011;41744;52.404;16.942;2022-10-04T21:54:02;44.67;;;17.10;;
55815;SDS011;41744;52.404;16.942;2022-10-04T21:56:28;39.30;;;15.48;;
55815;SDS011;41744;52.404;16.942;2022-10-04T21:58:58;42.33;;;17.58;;
55815;SDS011;41744;52.404;16.942;2022-10-04T22:01:27;42.07;;;17.77;;
55815;SDS011;41744;52.404;16.942;2022-10-04T22:03:53;43.60;;;17.70;;
55815;SDS011;41744;52.404;16.942;2022-10-04T22:06:19;46.03;;;18.30;;
55815;SDS011;41744;52.404;16.942;2022-10-04T22:08:45;36.83;;;17.03;;
55815;SDS011;41744;52.404;16.942;2022-10-04T22:11:11;38.43;;;17.40;;
55815;SDS011;41744;52.404;16.942;2022-10-04T22:13:37;44.13;;;17.53;;
55815;SDS011;41744;52.404;16.942;2022-10-04T22:16:03;38.80;;;17.63;;
55815;SDS011;41744;52.404;16.942;2022-10-04T22:18:30;43.25;;;16.95;;
55815;SDS011;41744;52.404;16.942;2022-10-04T22:20:56;41.83;;;17.90;;
55815;SDS011;41744;52.404;16.942;2022-10-04T22:23:23;46.20;;;17.27;;
55815;SDS011;41744;52.404;16.942;2022-10-04T22:25:49;40.67;;;16.97;;
55815;SDS011;41744;52.404;16.942;2022-10-04T22:28:28;40.57;;;16.77;;
55815;SDS011;41744;52.404;16.942;2022-10-04T22:30:54;38.00;;;16.70;;
55815;SDS011;41744;52.404;16.942;2022-10-04T22:33:30;37.30;;;15.73;;
55815;SDS011;41744;52.404;16.942;2022-10-04T22:35:58;37.87;;;16.57;;
55815;SDS011;41744;52.404;16.942;2022-10-04T22:38:30;39.80;;;16.27;;
55815;SDS011;41744;52.404;16.942;2022-10-04T22:40:56;42.23;;;16.90;;
55815;SDS011;41744;52.404;16.942;2022-10-04T22:43:22;36.67;;;15.27;;
55815;SDS011;41744;52.404;16.942;2022-10-04T22:45:48;35.17;;;15.73;;
55815;SDS011;41744;52.404;16.942;2022-10-04T22:48:14;40.27;;;17.33;;
55815;SDS011;41744;52.404;16.942;2022-10-04T22:50:40;44.03;;;16.77;;
55815;SDS011;41744;52.404;16.942;2022-10-04T22:53:10;39.73;;;16.33;;
55815;SDS011;41744;52.404;16.942;2022-10-04T22:55:38;37.17;;;15.60;;
55815;SDS011;41744;52.404;16.942;2022-10-04T22:58:05;37.53;;;15.77;;
55815;SDS011;41744;52.404;16.942;2022-10-04T23:00:31;35.93;;;15.13;;
55815;SDS011;41744;52.404;16.942;2022-10-04T23:02:57;38.40;;;15.40;;
55815;SDS011;41744;52.404;16.942;2022-10-04T23:05:23;40.30;;;16.10;;
55815;SDS011;41744;52.404;16.942;2022-10-04T23:07:49;35.70;;;14.93;;
55815;SDS011;41744;52.404;16.942;2022-10-04T23:10:16;40.47;;;15.43;;
55815;SDS011;41744;52.404;16.942;2022-10-04T23:12:43;38.27;;;15.47;;
55815;SDS011;41744;52.404;16.942;2022-10-04T23:15:12;39.97;;;16.03;;
55815;SDS011;41744;52.404;16.942;2022-10-04T23:17:39;35.07;;;14.50;;
55815;SDS011;41744;52.404;16.942;2022-10-04T23:20:18;34.37;;;14.83;;
55815;SDS011;41744;52.404;16.942;2022-10-04T23:22:47;36.10;;;14.73;;
55815;SDS011;41744;52.404;16.942;2022-10-04T23:25:15;34.83;;;14.83;;
55815;SDS011;41744;52.404;16.942;2022-10-04T23:27:42;35.13;;;14.57;;
55815;SDS011;41744;52.404;16.942;2022-10-04T23:30:09;35.87;;;13.73;;
55815;SDS011;41744;52.404;16.942;2022-10-04T23:32:37;30.97;;;14.00;;
55815;SDS011;41744;52.404;16.942;2022-10-04T23:35:05;30.37;;;14.27;;
55815;SDS011;41744;52.404;16.942;2022-10-04T23:37:38;28.83;;;13.00;;
55815;SDS011;41744;52.404;16.942;2022-10-04T23:40:07;32.47;;;13.43;;
55815;SDS011;41744;52.404;16.942;2022-10-04T23:42:33;34.03;;;12.97;;
55815;SDS011;41744;52.404;16.942;2022-10-04T23:45:00;26.03;;;13.27;;
55815;SDS011;41744;52.404;16.942;2022-10-04T23:47:34;24.63;;;11.27;;
55815;SDS011;41744;52.404;16.942;2022-10-04T23:50:00;29.60;;;11.30;;
55815;SDS011;41744;52.404;16.942;2022-10-04T23:52:38;28.13;;;12.03;;
55815;SDS011;41744;52.404;16.942;2022-10-04T23:55:38;26.10;;;11.70;;
55815;SDS011;41744;52.404;16.942;2022-10-04T23:57:57;33.13;;;12.10;;
